createdAt,value
2018-03-31T00:00:01.138Z,6.82
2018-03-31T00:00:05.437Z,6.81
2018-03-31T00:00:09.107Z,6.81
2018-03-31T00:00:13.210Z,6.82
2018-03-31T00:00:17.094Z,6.8
2018-03-31T00:00:21.191Z,6.82
2018-03-31T00:00:24.966Z,6.81
2018-03-31T00:00:29.284Z,6.81
2018-03-31T00:00:33.175Z,6.8
2018-03-31T00:00:37.170Z,6.8
2018-03-31T00:00:41.056Z,6.8
2018-03-31T00:00:45.053Z,6.8
2018-03-31T00:00:49.160Z,6.8
2018-03-31T00:00:53.373Z,6.8
2018-03-31T00:00:57.705Z,6.8
2018-03-31T00:01:02.231Z,6.79
2018-03-31T00:01:06.234Z,6.8
2018-03-31T00:01:10.225Z,6.8
2018-03-31T00:01:14.329Z,6.8
2018-03-31T00:01:18.442Z,6.8
2018-03-31T00:01:22.650Z,6.79
2018-03-31T00:01:26.753Z,6.78
2018-03-31T00:01:30.965Z,6.79
2018-03-31T00:01:35.069Z,6.78
2018-03-31T00:01:39.166Z,6.78
2018-03-31T00:01:43.373Z,6.78
2018-03-31T00:01:47.150Z,6.79
2018-03-31T00:01:51.037Z,6.78
2018-03-31T00:01:55.247Z,6.78
2018-03-31T00:01:59.346Z,6.77
2018-03-31T00:02:03.231Z,6.77
2018-03-31T00:02:07.336Z,6.78
2018-03-31T00:02:11.546Z,6.78
2018-03-31T00:02:15.555Z,6.78
2018-03-31T00:02:19.658Z,6.77
2018-03-31T00:02:23.652Z,6.78
2018-03-31T00:02:27.543Z,6.77
2018-03-31T00:02:31.541Z,6.76
2018-03-31T00:02:35.763Z,6.77
2018-03-31T00:02:39.646Z,6.77
2018-03-31T00:02:43.642Z,6.77
2018-03-31T00:02:47.749Z,6.78
2018-03-31T00:02:51.849Z,6.77
2018-03-31T00:02:55.841Z,6.77
2018-03-31T00:02:59.733Z,6.77
2018-03-31T00:03:03.866Z,6.76
2018-03-31T00:03:07.771Z,6.76
2018-03-31T00:03:11.920Z,6.76
2018-03-31T00:03:15.913Z,6.76
2018-03-31T00:03:19.798Z,6.76
2018-03-31T00:03:23.900Z,6.76
2018-03-31T00:03:28.107Z,6.76
2018-03-31T00:03:32.100Z,6.75
2018-03-31T00:03:35.989Z,6.76
2018-03-31T00:03:40.099Z,6.76
2018-03-31T00:03:44.204Z,6.75
2018-03-31T00:03:48.195Z,6.75
2018-03-31T00:03:52.187Z,6.74
2018-03-31T00:03:56.176Z,6.75
2018-03-31T00:04:00.275Z,6.75
2018-03-31T00:04:04.549Z,6.75
2018-03-31T00:04:08.432Z,6.75
2018-03-31T00:04:12.533Z,6.74
2018-03-31T00:04:16.751Z,6.73
2018-03-31T00:04:20.964Z,6.74
2018-03-31T00:04:24.962Z,6.75
2018-03-31T00:04:28.847Z,6.74
2018-03-31T00:04:32.949Z,6.74
2018-03-31T00:04:37.059Z,6.75
2018-03-31T00:04:40.944Z,6.75
2018-03-31T00:04:45.154Z,6.74
2018-03-31T00:04:49.253Z,6.75
2018-03-31T00:04:52.917Z,6.73
2018-03-31T00:04:56.907Z,6.73
2018-03-31T00:05:00.896Z,6.73
2018-03-31T00:05:04.990Z,6.74
2018-03-31T00:05:08.880Z,6.73
2018-03-31T00:05:12.867Z,6.74
2018-03-31T00:05:16.975Z,6.73
2018-03-31T00:05:21.191Z,6.74
2018-03-31T00:05:25.398Z,6.73
2018-03-31T00:05:29.617Z,6.73
2018-03-31T00:05:33.621Z,6.73
2018-03-31T00:05:37.728Z,6.73
2018-03-31T00:05:41.940Z,6.74
2018-03-31T00:05:46.048Z,6.73
2018-03-31T00:05:50.040Z,6.74
2018-03-31T00:05:53.926Z,6.73
2018-03-31T00:05:58.023Z,6.73
2018-03-31T00:06:02.124Z,6.73
2018-03-31T00:06:06.227Z,6.73
2018-03-31T00:06:10.224Z,6.72
2018-03-31T00:06:14.332Z,6.74
2018-03-31T00:06:18.217Z,6.73
2018-03-31T00:06:22.365Z,6.73
2018-03-31T00:06:26.355Z,6.72
2018-03-31T00:06:30.453Z,6.72
2018-03-31T00:06:34.339Z,6.72
2018-03-31T00:06:38.331Z,6.71
2018-03-31T00:06:42.536Z,6.71
2018-03-31T00:06:46.689Z,6.72
2018-03-31T00:06:50.679Z,6.72
2018-03-31T00:06:54.788Z,6.72
2018-03-31T00:06:58.673Z,6.71
2018-03-31T00:07:02.883Z,6.72
2018-03-31T00:07:06.875Z,6.71
2018-03-31T00:07:10.869Z,6.7
2018-03-31T00:07:14.647Z,6.7
2018-03-31T00:07:18.651Z,6.71
2018-03-31T00:07:22.971Z,6.7
2018-03-31T00:07:27.075Z,6.7
2018-03-31T00:07:30.953Z,6.7
2018-03-31T00:07:35.169Z,6.71
2018-03-31T00:07:39.380Z,6.69
2018-03-31T00:07:43.269Z,6.7
2018-03-31T00:07:47.485Z,6.69
2018-03-31T00:07:51.474Z,6.69
2018-03-31T00:07:55.363Z,6.69
2018-03-31T00:07:59.467Z,6.69
2018-03-31T00:08:03.977Z,6.69
2018-03-31T00:08:07.876Z,6.69
2018-03-31T00:08:12.199Z,6.68
2018-03-31T00:08:16.194Z,6.68
2018-03-31T00:08:20.187Z,6.67
2018-03-31T00:08:23.966Z,6.68
2018-03-31T00:08:28.074Z,6.67
2018-03-31T00:08:32.179Z,6.67
2018-03-31T00:08:36.388Z,6.66
2018-03-31T00:08:40.501Z,6.66
2018-03-31T00:08:44.840Z,6.66
2018-03-31T00:08:48.724Z,6.65
2018-03-31T00:08:52.827Z,6.66
2018-03-31T00:08:56.817Z,6.65
2018-03-31T00:09:00.815Z,6.65
2018-03-31T00:09:05.172Z,6.65
2018-03-31T00:09:09.284Z,6.64
2018-03-31T00:09:13.505Z,6.63
2018-03-31T00:09:17.728Z,6.63
2018-03-31T00:09:21.854Z,6.62
2018-03-31T00:09:25.846Z,6.62
2018-03-31T00:09:29.728Z,6.61
2018-03-31T00:09:33.940Z,6.6
2018-03-31T00:09:38.187Z,6.61
2018-03-31T00:09:42.176Z,6.61
2018-03-31T00:09:46.064Z,6.6
2018-03-31T00:09:50.283Z,6.59
2018-03-31T00:09:54.170Z,6.59
2018-03-31T00:09:58.170Z,6.59
2018-03-31T00:10:02.415Z,6.58
2018-03-31T00:10:06.414Z,6.58
2018-03-31T00:10:10.304Z,6.57
2018-03-31T00:10:14.403Z,6.57
2018-03-31T00:10:18.616Z,6.57
2018-03-31T00:10:22.733Z,6.56
2018-03-31T00:10:26.782Z,6.57
2018-03-31T00:10:30.883Z,6.56
2018-03-31T00:10:34.983Z,6.55
2018-03-31T00:10:39.081Z,6.55
2018-03-31T00:10:42.975Z,6.55
2018-03-31T00:10:47.078Z,6.54
2018-03-31T00:10:51.180Z,6.54
2018-03-31T00:10:55.279Z,6.53
2018-03-31T00:10:59.603Z,6.54
2018-03-31T00:11:03.792Z,6.52
2018-03-31T00:11:07.905Z,6.52
2018-03-31T00:11:12.003Z,6.52
2018-03-31T00:11:15.994Z,6.52
2018-03-31T00:11:19.775Z,6.51
2018-03-31T00:11:24.000Z,6.51
2018-03-31T00:11:27.988Z,6.5
2018-03-31T00:11:32.091Z,6.5
2018-03-31T00:11:36.092Z,6.5
2018-03-31T00:11:40.304Z,6.5
2018-03-31T00:11:44.564Z,6.49
2018-03-31T00:11:48.776Z,6.49
2018-03-31T00:11:52.875Z,6.49
2018-03-31T00:11:56.975Z,6.47
2018-03-31T00:12:01.180Z,6.48
2018-03-31T00:12:05.175Z,6.47
2018-03-31T00:12:09.059Z,6.46
2018-03-31T00:12:13.161Z,6.46
2018-03-31T00:12:17.153Z,6.46
2018-03-31T00:12:21.254Z,6.45
2018-03-31T00:12:25.367Z,6.45
2018-03-31T00:12:29.249Z,6.45
2018-03-31T00:12:33.349Z,6.44
2018-03-31T00:12:37.446Z,6.44
2018-03-31T00:12:41.658Z,6.43
2018-03-31T00:12:45.761Z,6.43
2018-03-31T00:12:49.866Z,6.43
2018-03-31T00:12:53.965Z,6.42
2018-03-31T00:12:57.977Z,6.42
2018-03-31T00:13:02.107Z,6.4
2018-03-31T00:13:06.097Z,6.41
2018-03-31T00:13:10.091Z,6.4
2018-03-31T00:13:14.310Z,6.4
2018-03-31T00:13:18.529Z,6.4
2018-03-31T00:13:22.520Z,6.37
2018-03-31T00:13:26.400Z,6.37
2018-03-31T00:13:30.393Z,6.38
2018-03-31T00:13:34.274Z,6.36
2018-03-31T00:13:38.264Z,6.37
2018-03-31T00:13:42.470Z,6.37
2018-03-31T00:13:46.352Z,6.36
2018-03-31T00:13:50.455Z,6.36
2018-03-31T00:13:54.334Z,6.35
2018-03-31T00:13:58.219Z,6.35
2018-03-31T00:14:02.490Z,6.35
2018-03-31T00:14:06.595Z,6.33
2018-03-31T00:14:10.474Z,6.33
2018-03-31T00:14:14.585Z,6.32
2018-03-31T00:14:18.572Z,6.32
2018-03-31T00:14:22.674Z,6.31
2018-03-31T00:14:26.785Z,6.31
2018-03-31T00:14:30.893Z,6.31
2018-03-31T00:14:35.218Z,6.3
2018-03-31T00:14:39.213Z,6.3
2018-03-31T00:14:43.417Z,6.3
2018-03-31T00:14:47.622Z,6.29
2018-03-31T00:14:51.622Z,6.29
2018-03-31T00:14:55.829Z,6.28
2018-03-31T00:14:59.717Z,6.28
2018-03-31T00:15:04.137Z,6.28
2018-03-31T00:15:08.348Z,6.27
2018-03-31T00:15:12.334Z,6.27
2018-03-31T00:15:16.435Z,6.27
2018-03-31T00:15:20.530Z,6.25
2018-03-31T00:15:24.632Z,6.25
2018-03-31T00:15:28.514Z,6.24
2018-03-31T00:15:32.618Z,6.24
2018-03-31T00:15:36.721Z,6.24
2018-03-31T00:15:40.818Z,6.23
2018-03-31T00:15:44.932Z,6.24
2018-03-31T00:15:48.817Z,6.22
2018-03-31T00:15:52.914Z,6.23
2018-03-31T00:15:57.010Z,6.22
2018-03-31T00:16:01.109Z,6.22
2018-03-31T00:16:05.143Z,6.21
2018-03-31T00:16:09.142Z,6.21
2018-03-31T00:16:13.029Z,6.21
2018-03-31T00:16:17.344Z,6.2
2018-03-31T00:16:21.120Z,6.2
2018-03-31T00:16:25.015Z,6.19
2018-03-31T00:16:29.234Z,6.19
2018-03-31T00:16:33.454Z,6.18
2018-03-31T00:16:37.450Z,6.18
2018-03-31T00:16:41.550Z,6.18
2018-03-31T00:16:45.870Z,6.17
2018-03-31T00:16:49.975Z,6.17
2018-03-31T00:16:53.965Z,6.16
2018-03-31T00:16:57.956Z,6.16
2018-03-31T00:17:01.735Z,6.15
2018-03-31T00:17:06.045Z,6.16
2018-03-31T00:17:09.929Z,6.14
2018-03-31T00:17:14.142Z,6.14
2018-03-31T00:17:18.133Z,6.15
2018-03-31T00:17:22.405Z,6.14
2018-03-31T00:17:26.399Z,6.14
2018-03-31T00:17:30.604Z,6.13
2018-03-31T00:17:34.759Z,6.13
2018-03-31T00:17:38.856Z,6.12
2018-03-31T00:17:42.750Z,6.12
2018-03-31T00:17:46.872Z,6.11
2018-03-31T00:17:50.979Z,6.11
2018-03-31T00:17:54.972Z,6.11
2018-03-31T00:17:58.981Z,6.1
2018-03-31T00:18:02.874Z,6.1
2018-03-31T00:18:07.088Z,6.1
2018-03-31T00:18:11.089Z,6.1
2018-03-31T00:18:14.978Z,6.09
2018-03-31T00:18:19.078Z,6.09
2018-03-31T00:18:23.186Z,6.09
2018-03-31T00:18:27.406Z,6.08
2018-03-31T00:18:31.506Z,6.09
2018-03-31T00:18:35.497Z,6.08
2018-03-31T00:18:39.604Z,6.07
2018-03-31T00:18:43.705Z,6.08
2018-03-31T00:18:47.703Z,6.07
2018-03-31T00:18:51.799Z,6.06
2018-03-31T00:18:55.906Z,6.06
2018-03-31T00:19:00.109Z,6.05
2018-03-31T00:19:04.211Z,6.06
2018-03-31T00:19:08.338Z,6.06
2018-03-31T00:19:12.545Z,6.05
2018-03-31T00:19:16.534Z,6.05
2018-03-31T00:19:20.742Z,6.04
2018-03-31T00:19:24.740Z,6.04
2018-03-31T00:19:28.682Z,6.03
2018-03-31T00:19:32.680Z,6.04
2018-03-31T00:19:36.785Z,6.03
2018-03-31T00:19:40.951Z,6.03
2018-03-31T00:19:45.163Z,6.02
2018-03-31T00:19:49.265Z,6.03
2018-03-31T00:19:53.367Z,6.02
2018-03-31T00:19:57.373Z,6.01
2018-03-31T00:20:01.486Z,6.01
2018-03-31T00:20:05.669Z,6
2018-03-31T00:20:09.561Z,6
2018-03-31T00:20:13.878Z,6
2018-03-31T00:20:17.874Z,5.99
2018-03-31T00:20:22.089Z,5.99
2018-03-31T00:20:26.080Z,5.99
2018-03-31T00:20:30.179Z,5.99
2018-03-31T00:20:34.393Z,5.99
2018-03-31T00:20:38.381Z,5.99
2018-03-31T00:20:42.696Z,5.97
2018-03-31T00:20:46.687Z,5.98
2018-03-31T00:20:50.810Z,5.99
2018-03-31T00:20:54.700Z,5.98
2018-03-31T00:20:58.807Z,5.98
2018-03-31T00:21:02.910Z,5.98
2018-03-31T00:21:06.901Z,5.97
2018-03-31T00:21:11.004Z,5.97
2018-03-31T00:21:14.784Z,5.96
2018-03-31T00:21:18.888Z,5.98
2018-03-31T00:21:23.096Z,5.97
2018-03-31T00:21:27.305Z,5.97
2018-03-31T00:21:31.510Z,5.96
2018-03-31T00:21:35.718Z,5.97
2018-03-31T00:21:39.817Z,5.97
2018-03-31T00:21:43.703Z,5.96
2018-03-31T00:21:47.916Z,5.97
2018-03-31T00:21:52.015Z,5.96
2018-03-31T00:21:55.904Z,5.96
2018-03-31T00:21:59.897Z,5.96
2018-03-31T00:22:03.995Z,5.96
2018-03-31T00:22:08.215Z,5.96
2018-03-31T00:22:12.208Z,5.96
2018-03-31T00:22:16.524Z,5.97
2018-03-31T00:22:20.515Z,5.96
2018-03-31T00:22:24.513Z,5.96
2018-03-31T00:22:28.504Z,5.97
2018-03-31T00:22:32.606Z,5.97
2018-03-31T00:22:36.747Z,5.98
2018-03-31T00:22:40.740Z,5.97
2018-03-31T00:22:44.738Z,5.97
2018-03-31T00:22:49.055Z,5.97
2018-03-31T00:22:53.164Z,5.97
2018-03-31T00:22:57.373Z,5.96
2018-03-31T00:23:01.498Z,5.97
2018-03-31T00:23:05.713Z,5.97
2018-03-31T00:23:09.823Z,5.96
2018-03-31T00:23:13.926Z,5.97
2018-03-31T00:23:17.923Z,5.97
2018-03-31T00:23:21.926Z,5.97
2018-03-31T00:23:25.825Z,5.97
2018-03-31T00:23:29.925Z,5.97
2018-03-31T00:23:34.130Z,5.98
2018-03-31T00:23:38.339Z,5.97
2018-03-31T00:23:42.328Z,5.98
2018-03-31T00:23:46.318Z,5.97
2018-03-31T00:23:50.203Z,5.97
2018-03-31T00:23:54.095Z,5.97
2018-03-31T00:23:58.201Z,5.98
2018-03-31T00:24:02.442Z,5.97
2018-03-31T00:24:06.549Z,5.97
2018-03-31T00:24:10.678Z,5.97
2018-03-31T00:24:14.796Z,5.97
2018-03-31T00:24:18.787Z,5.97
2018-03-31T00:24:22.885Z,5.97
2018-03-31T00:24:26.876Z,5.97
2018-03-31T00:24:30.979Z,5.98
2018-03-31T00:24:35.289Z,5.98
2018-03-31T00:24:39.501Z,5.99
2018-03-31T00:24:43.715Z,5.99
2018-03-31T00:24:47.818Z,5.99
2018-03-31T00:24:51.708Z,5.99
2018-03-31T00:24:55.811Z,5.98
2018-03-31T00:24:59.818Z,5.99
2018-03-31T00:25:03.913Z,5.99
2018-03-31T00:25:08.010Z,5.99
2018-03-31T00:25:11.782Z,5.99
2018-03-31T00:25:15.887Z,5.99
2018-03-31T00:25:19.992Z,6
2018-03-31T00:25:24.204Z,5.99
2018-03-31T00:25:28.300Z,5.99
2018-03-31T00:25:32.291Z,6.01
2018-03-31T00:25:36.298Z,5.99
2018-03-31T00:25:40.395Z,6
2018-03-31T00:25:44.500Z,6
2018-03-31T00:25:48.386Z,6
2018-03-31T00:25:52.272Z,6
2018-03-31T00:25:56.377Z,6.01
2018-03-31T00:26:00.372Z,6.01
2018-03-31T00:26:04.377Z,6.02
2018-03-31T00:26:08.260Z,6.02
2018-03-31T00:26:12.484Z,6.02
2018-03-31T00:26:16.565Z,6.01
2018-03-31T00:26:20.451Z,6.02
2018-03-31T00:26:24.441Z,6.02
2018-03-31T00:26:28.539Z,6.02
2018-03-31T00:26:32.527Z,6.02
2018-03-31T00:26:36.635Z,6.02
2018-03-31T00:26:40.630Z,6.03
2018-03-31T00:26:44.734Z,6.02
2018-03-31T00:26:48.956Z,6.03
2018-03-31T00:26:53.051Z,6.02
2018-03-31T00:26:57.044Z,6.04
2018-03-31T00:27:01.146Z,6.03
2018-03-31T00:27:05.046Z,6.03
2018-03-31T00:27:09.150Z,6.03
2018-03-31T00:27:13.261Z,6.03
2018-03-31T00:27:17.370Z,6.03
2018-03-31T00:27:21.365Z,6.04
2018-03-31T00:27:25.684Z,6.04
2018-03-31T00:27:29.794Z,6.04
2018-03-31T00:27:33.960Z,6.04
2018-03-31T00:27:37.961Z,6.04
2018-03-31T00:27:42.071Z,6.04
2018-03-31T00:27:46.179Z,6.05
2018-03-31T00:27:50.173Z,6.04
2018-03-31T00:27:54.390Z,6.04
2018-03-31T00:27:58.492Z,6.05
2018-03-31T00:28:02.525Z,6.05
2018-03-31T00:28:06.741Z,6.05
2018-03-31T00:28:10.740Z,6.05
2018-03-31T00:28:14.841Z,6.05
2018-03-31T00:28:18.943Z,6.06
2018-03-31T00:28:23.041Z,6.06
2018-03-31T00:28:27.371Z,6.06
2018-03-31T00:28:31.472Z,6.05
2018-03-31T00:28:35.472Z,6.06
2018-03-31T00:28:39.579Z,6.07
2018-03-31T00:28:43.564Z,6.06
2018-03-31T00:28:47.554Z,6.07
2018-03-31T00:28:51.769Z,6.07
2018-03-31T00:28:55.824Z,6.08
2018-03-31T00:28:59.818Z,6.08
2018-03-31T00:29:03.963Z,6.07
2018-03-31T00:29:08.177Z,6.08
2018-03-31T00:29:12.276Z,6.08
2018-03-31T00:29:16.487Z,6.08
2018-03-31T00:29:20.489Z,6.08
2018-03-31T00:29:24.693Z,6.09
2018-03-31T00:29:28.360Z,6.08
2018-03-31T00:29:32.456Z,6.08
2018-03-31T00:29:36.660Z,6.08
2018-03-31T00:29:40.652Z,6.08
2018-03-31T00:29:44.750Z,6.09
2018-03-31T00:29:48.964Z,6.09
2018-03-31T00:29:52.842Z,6.1
2018-03-31T00:29:57.053Z,6.1
2018-03-31T00:30:01.051Z,6.1
2018-03-31T00:30:05.054Z,6.1
2018-03-31T00:30:09.059Z,6.1
2018-03-31T00:30:13.169Z,6.11
2018-03-31T00:30:17.051Z,6.1
2018-03-31T00:30:21.152Z,6.11
2018-03-31T00:30:25.365Z,6.11
2018-03-31T00:30:29.600Z,6.11
2018-03-31T00:30:33.593Z,6.11
2018-03-31T00:30:37.692Z,6.12
2018-03-31T00:30:41.903Z,6.12
2018-03-31T00:30:46.111Z,6.12
2018-03-31T00:30:50.102Z,6.13
2018-03-31T00:30:53.991Z,6.12
2018-03-31T00:30:57.997Z,6.13
2018-03-31T00:31:02.031Z,6.13
2018-03-31T00:31:05.808Z,6.13
2018-03-31T00:31:09.914Z,6.13
2018-03-31T00:31:14.126Z,6.13
2018-03-31T00:31:18.119Z,6.14
2018-03-31T00:31:22.112Z,6.13
2018-03-31T00:31:26.217Z,6.14
2018-03-31T00:31:30.424Z,6.14
2018-03-31T00:31:34.313Z,6.14
2018-03-31T00:31:38.520Z,6.14
2018-03-31T00:31:42.511Z,6.14
2018-03-31T00:31:46.621Z,6.14
2018-03-31T00:31:50.943Z,6.15
2018-03-31T00:31:54.942Z,6.15
2018-03-31T00:31:59.036Z,6.15
2018-03-31T00:32:02.811Z,6.15
2018-03-31T00:32:06.914Z,6.15
2018-03-31T00:32:10.907Z,6.16
2018-03-31T00:32:15.118Z,6.15
2018-03-31T00:32:19.120Z,6.15
2018-03-31T00:32:23.113Z,6.16
2018-03-31T00:32:27.433Z,6.16
2018-03-31T00:32:31.539Z,6.15
2018-03-31T00:32:35.648Z,6.16
2018-03-31T00:32:39.747Z,6.15
2018-03-31T00:32:43.845Z,6.16
2018-03-31T00:32:48.232Z,6.17
2018-03-31T00:32:52.443Z,6.17
2018-03-31T00:32:56.337Z,6.17
2018-03-31T00:33:00.444Z,6.16
2018-03-31T00:33:04.653Z,6.17
2018-03-31T00:33:08.540Z,6.17
2018-03-31T00:33:12.320Z,6.17
2018-03-31T00:33:16.204Z,6.18
2018-03-31T00:33:19.985Z,6.18
2018-03-31T00:33:24.087Z,6.18
2018-03-31T00:33:27.970Z,6.18
2018-03-31T00:33:32.292Z,6.17
2018-03-31T00:33:36.291Z,6.18
2018-03-31T00:33:40.390Z,6.18
2018-03-31T00:33:44.484Z,6.19
2018-03-31T00:33:48.474Z,6.19
2018-03-31T00:33:52.464Z,6.2
2018-03-31T00:33:56.459Z,6.2
2018-03-31T00:34:00.672Z,6.19
2018-03-31T00:34:04.815Z,6.19
2018-03-31T00:34:08.915Z,6.19
2018-03-31T00:34:13.018Z,6.2
2018-03-31T00:34:17.225Z,6.21
2018-03-31T00:34:21.112Z,6.19
2018-03-31T00:34:24.997Z,6.21
2018-03-31T00:34:28.988Z,6.21
2018-03-31T00:34:32.765Z,6.21
2018-03-31T00:34:36.865Z,6.22
2018-03-31T00:34:40.865Z,6.21
2018-03-31T00:34:44.974Z,6.21
2018-03-31T00:34:49.081Z,6.21
2018-03-31T00:34:53.081Z,6.21
2018-03-31T00:34:57.287Z,6.21
2018-03-31T00:35:01.276Z,6.21
2018-03-31T00:35:05.377Z,6.21
2018-03-31T00:35:09.368Z,6.21
2018-03-31T00:35:13.366Z,6.22
2018-03-31T00:35:17.361Z,6.22
2018-03-31T00:35:21.254Z,6.22
2018-03-31T00:35:25.245Z,6.22
2018-03-31T00:35:29.346Z,6.22
2018-03-31T00:35:33.560Z,6.22
2018-03-31T00:35:37.780Z,6.22
2018-03-31T00:35:41.776Z,6.23
2018-03-31T00:35:45.869Z,6.22
2018-03-31T00:35:50.078Z,6.22
2018-03-31T00:35:54.179Z,6.23
2018-03-31T00:35:58.382Z,6.23
2018-03-31T00:36:02.629Z,6.23
2018-03-31T00:36:06.512Z,6.23
2018-03-31T00:36:10.727Z,6.23
2018-03-31T00:36:14.728Z,6.24
2018-03-31T00:36:18.827Z,6.23
2018-03-31T00:36:22.924Z,6.24
2018-03-31T00:36:27.024Z,6.24
2018-03-31T00:36:31.227Z,6.23
2018-03-31T00:36:35.441Z,6.24
2018-03-31T00:36:39.646Z,6.24
2018-03-31T00:36:43.639Z,6.25
2018-03-31T00:36:47.846Z,6.24
2018-03-31T00:36:51.953Z,6.24
2018-03-31T00:36:55.942Z,6.24
2018-03-31T00:37:00.044Z,6.25
2018-03-31T00:37:03.928Z,6.25
2018-03-31T00:37:07.926Z,6.25
2018-03-31T00:37:11.924Z,6.25
2018-03-31T00:37:16.025Z,6.25
2018-03-31T00:37:20.014Z,6.25
2018-03-31T00:37:24.117Z,6.25
2018-03-31T00:37:28.441Z,6.25
2018-03-31T00:37:32.324Z,6.25
2018-03-31T00:37:36.538Z,6.26
2018-03-31T00:37:40.768Z,6.26
2018-03-31T00:37:44.644Z,6.26
2018-03-31T00:37:48.858Z,6.27
2018-03-31T00:37:52.963Z,6.27
2018-03-31T00:37:56.961Z,6.27
2018-03-31T00:38:01.107Z,6.27
2018-03-31T00:38:05.293Z,6.27
2018-03-31T00:38:09.609Z,6.28
2018-03-31T00:38:13.711Z,6.28
2018-03-31T00:38:17.595Z,6.27
2018-03-31T00:38:21.592Z,6.28
2018-03-31T00:38:25.480Z,6.29
2018-03-31T00:38:29.583Z,6.28
2018-03-31T00:38:33.683Z,6.28
2018-03-31T00:38:37.790Z,6.29
2018-03-31T00:38:41.786Z,6.29
2018-03-31T00:38:45.676Z,6.29
2018-03-31T00:38:49.670Z,6.3
2018-03-31T00:38:54.184Z,6.3
2018-03-31T00:38:58.503Z,6.29
2018-03-31T00:39:03.135Z,6.29
2018-03-31T00:39:07.126Z,6.29
2018-03-31T00:39:11.007Z,6.3
2018-03-31T00:39:14.999Z,6.3
2018-03-31T00:39:19.105Z,6.31
2018-03-31T00:39:23.208Z,6.3
2018-03-31T00:39:27.090Z,6.31
2018-03-31T00:39:31.087Z,6.31
2018-03-31T00:39:35.415Z,6.31
2018-03-31T00:39:39.407Z,6.31
2018-03-31T00:39:43.404Z,6.31
2018-03-31T00:39:47.570Z,6.31
2018-03-31T00:39:51.676Z,6.31
2018-03-31T00:39:55.558Z,6.31
2018-03-31T00:39:59.659Z,6.32
2018-03-31T00:40:03.867Z,6.31
2018-03-31T00:40:07.968Z,6.32
2018-03-31T00:40:12.070Z,6.32
2018-03-31T00:40:16.168Z,6.32
2018-03-31T00:40:20.273Z,6.32
2018-03-31T00:40:24.378Z,6.32
2018-03-31T00:40:28.474Z,6.32
2018-03-31T00:40:32.738Z,6.32
2018-03-31T00:40:36.635Z,6.33
2018-03-31T00:40:40.841Z,6.33
2018-03-31T00:40:45.130Z,6.32
2018-03-31T00:40:49.120Z,6.32
2018-03-31T00:40:53.219Z,6.33
2018-03-31T00:40:57.266Z,6.33
2018-03-31T00:41:01.264Z,6.34
2018-03-31T00:41:05.256Z,6.34
2018-03-31T00:41:09.257Z,6.34
2018-03-31T00:41:13.254Z,6.34
2018-03-31T00:41:17.141Z,6.35
2018-03-31T00:41:21.239Z,6.34
2018-03-31T00:41:25.443Z,6.35
2018-03-31T00:41:29.542Z,6.34
2018-03-31T00:41:33.531Z,6.34
2018-03-31T00:41:37.746Z,6.36
2018-03-31T00:41:41.846Z,6.36
2018-03-31T00:41:45.837Z,6.36
2018-03-31T00:41:49.723Z,6.36
2018-03-31T00:41:53.822Z,6.36
2018-03-31T00:41:57.821Z,6.36
2018-03-31T00:42:02.160Z,6.36
2018-03-31T00:42:05.946Z,6.36
2018-03-31T00:42:09.839Z,6.36
2018-03-31T00:42:13.834Z,6.37
2018-03-31T00:42:17.717Z,6.37
2018-03-31T00:42:21.721Z,6.37
2018-03-31T00:42:25.830Z,6.37
2018-03-31T00:42:29.952Z,6.37
2018-03-31T00:42:34.058Z,6.37
2018-03-31T00:42:38.268Z,6.37
2018-03-31T00:42:42.257Z,6.37
2018-03-31T00:42:46.365Z,6.36
2018-03-31T00:42:50.470Z,6.38
2018-03-31T00:42:54.569Z,6.37
2018-03-31T00:42:58.560Z,6.38
2018-03-31T00:43:02.660Z,6.37
2018-03-31T00:43:06.652Z,6.38
2018-03-31T00:43:10.536Z,6.38
2018-03-31T00:43:14.755Z,6.38
2018-03-31T00:43:18.749Z,6.38
2018-03-31T00:43:22.745Z,6.39
2018-03-31T00:43:26.845Z,6.39
2018-03-31T00:43:30.954Z,6.39
2018-03-31T00:43:34.838Z,6.39
2018-03-31T00:43:39.042Z,6.39
2018-03-31T00:43:43.154Z,6.39
2018-03-31T00:43:47.412Z,6.4
2018-03-31T00:43:51.518Z,6.39
2018-03-31T00:43:55.727Z,6.39
2018-03-31T00:43:59.826Z,6.4
2018-03-31T00:44:04.229Z,6.39
2018-03-31T00:44:08.165Z,6.39
2018-03-31T00:44:12.372Z,6.39
2018-03-31T00:44:16.484Z,6.4
2018-03-31T00:44:20.472Z,6.4
2018-03-31T00:44:24.466Z,6.4
2018-03-31T00:44:28.350Z,6.4
2018-03-31T00:44:32.340Z,6.41
2018-03-31T00:44:36.344Z,6.4
2018-03-31T00:44:40.336Z,6.4
2018-03-31T00:44:44.553Z,6.41
2018-03-31T00:44:48.550Z,6.4
2018-03-31T00:44:52.649Z,6.41
2018-03-31T00:44:56.751Z,6.41
2018-03-31T00:45:00.749Z,6.41
2018-03-31T00:45:04.759Z,6.4
2018-03-31T00:45:08.861Z,6.41
2018-03-31T00:45:12.960Z,6.41
2018-03-31T00:45:16.951Z,6.42
2018-03-31T00:45:21.159Z,6.41
2018-03-31T00:45:25.051Z,6.42
2018-03-31T00:45:29.045Z,6.42
2018-03-31T00:45:33.160Z,6.42
2018-03-31T00:45:37.067Z,6.42
2018-03-31T00:45:41.066Z,6.42
2018-03-31T00:45:45.275Z,6.43
2018-03-31T00:45:49.051Z,6.42
2018-03-31T00:45:53.260Z,6.42
2018-03-31T00:45:57.246Z,6.42
2018-03-31T00:46:01.280Z,6.42
2018-03-31T00:46:05.303Z,6.41
2018-03-31T00:46:09.190Z,6.41
2018-03-31T00:46:13.074Z,6.42
2018-03-31T00:46:17.173Z,6.41
2018-03-31T00:46:21.176Z,6.42
2018-03-31T00:46:25.288Z,6.42
2018-03-31T00:46:29.402Z,6.42
2018-03-31T00:46:33.618Z,6.42
2018-03-31T00:46:37.844Z,6.42
2018-03-31T00:46:41.736Z,6.42
2018-03-31T00:46:45.736Z,6.42
2018-03-31T00:46:50.052Z,6.41
2018-03-31T00:46:54.270Z,6.43
2018-03-31T00:46:58.478Z,6.43
2018-03-31T00:47:02.377Z,6.42
2018-03-31T00:47:06.474Z,6.42
2018-03-31T00:47:10.794Z,6.42
2018-03-31T00:47:14.901Z,6.41
2018-03-31T00:47:19.011Z,6.42
2018-03-31T00:47:22.787Z,6.42
2018-03-31T00:47:26.783Z,6.41
2018-03-31T00:47:31.000Z,6.42
2018-03-31T00:47:35.101Z,6.42
2018-03-31T00:47:39.198Z,6.43
2018-03-31T00:47:43.189Z,6.42
2018-03-31T00:47:47.396Z,6.42
2018-03-31T00:47:51.505Z,6.43
2018-03-31T00:47:55.605Z,6.42
2018-03-31T00:47:59.487Z,6.43
2018-03-31T00:48:03.892Z,6.43
2018-03-31T00:48:07.993Z,6.43
2018-03-31T00:48:11.880Z,6.43
2018-03-31T00:48:15.873Z,6.43
2018-03-31T00:48:19.981Z,6.43
2018-03-31T00:48:24.080Z,6.42
2018-03-31T00:48:28.189Z,6.42
2018-03-31T00:48:32.293Z,6.43
2018-03-31T00:48:36.492Z,6.43
2018-03-31T00:48:40.707Z,6.44
2018-03-31T00:48:44.697Z,6.44
2018-03-31T00:48:48.695Z,6.44
2018-03-31T00:48:52.583Z,6.44
2018-03-31T00:48:56.537Z,6.43
2018-03-31T00:49:00.749Z,6.44
2018-03-31T00:49:04.641Z,6.44
2018-03-31T00:49:08.962Z,6.44
2018-03-31T00:49:12.952Z,6.44
2018-03-31T00:49:17.058Z,6.44
2018-03-31T00:49:21.271Z,6.44
2018-03-31T00:49:25.273Z,6.45
2018-03-31T00:49:29.378Z,6.44
2018-03-31T00:49:33.607Z,6.45
2018-03-31T00:49:37.869Z,6.44
2018-03-31T00:49:42.079Z,6.45
2018-03-31T00:49:46.070Z,6.44
2018-03-31T00:49:50.284Z,6.45
2018-03-31T00:49:54.274Z,6.44
2018-03-31T00:49:58.378Z,6.45
2018-03-31T00:50:02.473Z,6.45
2018-03-31T00:50:06.249Z,6.45
2018-03-31T00:50:10.261Z,6.45
2018-03-31T00:50:14.149Z,6.45
2018-03-31T00:50:18.252Z,6.44
2018-03-31T00:50:22.242Z,6.45
2018-03-31T00:50:26.132Z,6.46
2018-03-31T00:50:30.245Z,6.45
2018-03-31T00:50:34.401Z,6.45
2018-03-31T00:50:38.718Z,6.46
2018-03-31T00:50:42.935Z,6.46
2018-03-31T00:50:47.153Z,6.45
2018-03-31T00:50:51.263Z,6.45
2018-03-31T00:50:55.376Z,6.45
2018-03-31T00:50:59.271Z,6.45
2018-03-31T00:51:03.501Z,6.46
2018-03-31T00:51:07.387Z,6.46
2018-03-31T00:51:11.281Z,6.46
2018-03-31T00:51:15.381Z,6.45
2018-03-31T00:51:19.269Z,6.46
2018-03-31T00:51:23.581Z,6.46
2018-03-31T00:51:27.575Z,6.46
2018-03-31T00:51:31.672Z,6.46
2018-03-31T00:51:35.583Z,6.46
2018-03-31T00:51:39.802Z,6.46
2018-03-31T00:51:43.908Z,6.46
2018-03-31T00:51:48.124Z,6.46
2018-03-31T00:51:52.342Z,6.46
2018-03-31T00:51:56.449Z,6.46
2018-03-31T00:52:00.437Z,6.46
2018-03-31T00:52:04.481Z,6.46
2018-03-31T00:52:08.494Z,6.46
2018-03-31T00:52:12.711Z,6.46
2018-03-31T00:52:16.817Z,6.46
2018-03-31T00:52:20.928Z,6.46
2018-03-31T00:52:25.043Z,6.46
2018-03-31T00:52:28.932Z,6.46
2018-03-31T00:52:33.145Z,6.47
2018-03-31T00:52:37.146Z,6.47
2018-03-31T00:52:41.082Z,6.47
2018-03-31T00:52:45.081Z,6.47
2018-03-31T00:52:49.078Z,6.47
2018-03-31T00:52:53.175Z,6.47
2018-03-31T00:52:57.384Z,6.47
2018-03-31T00:53:01.547Z,6.46
2018-03-31T00:53:05.431Z,6.46
2018-03-31T00:53:09.534Z,6.47
2018-03-31T00:53:13.873Z,6.47
2018-03-31T00:53:17.759Z,6.46
2018-03-31T00:53:21.759Z,6.47
2018-03-31T00:53:25.860Z,6.46
2018-03-31T00:53:29.748Z,6.46
2018-03-31T00:53:33.847Z,6.46
2018-03-31T00:53:37.845Z,6.47
2018-03-31T00:53:42.066Z,6.47
2018-03-31T00:53:46.167Z,6.46
2018-03-31T00:53:50.270Z,6.46
2018-03-31T00:53:54.260Z,6.47
2018-03-31T00:53:58.573Z,6.46
2018-03-31T00:54:02.609Z,6.47
2018-03-31T00:54:06.608Z,6.46
2018-03-31T00:54:10.813Z,6.46
2018-03-31T00:54:14.912Z,6.46
2018-03-31T00:54:18.909Z,6.47
2018-03-31T00:54:23.013Z,6.46